Time;durP1;ratioP1;P1;durP2;ratioP2;P2;SDS_P1;SDS_P2;PMS_P1;PMS_P2;Temp;Humidity;BMP_temperature;BMP_pressure;BME280_temperature;BME280_humidity;BME280_pressure;Samples;Min_cycle;Max_cycle;Signal;HPM_P1;HPM_P2
2021/07/06 00:02:16;;;;;;;13.13;11.52;;;;;;;;;;5134638;27;20519;-69
2021/07/06 00:04:43;;;;;;;12.70;11.40;;;;;;;;;;5134533;27;20042;-68
2021/07/06 00:07:09;;;;;;;14.65;11.30;;;;;;;;;;5134572;27;20027;-67
2021/07/06 00:09:35;;;;;;;13.73;11.35;;;;;;;;;;5134565;27;20024;-71
2021/07/06 00:12:02;;;;;;;12.20;10.70;;;;;;;;;;5116042;27;20118;-71
2021/07/06 00:14:28;;;;;;;15.00;10.90;;;;;;;;;;5134425;27;20027;-70
2021/07/06 00:16:54;;;;;;;12.68;10.90;;;;;;;;;;5134143;27;20054;-68
2021/07/06 00:19:20;;;;;;;12.48;11.27;;;;;;;;;;5134714;27;20077;-70
2021/07/06 00:21:46;;;;;;;13.55;10.63;;;;;;;;;;5134622;27;20106;-70
2021/07/06 00:24:12;;;;;;;12.25;10.98;;;;;;;;;;5115805;27;20114;-68
2021/07/06 00:26:39;;;;;;;11.30;10.18;;;;;;;;;;5134280;27;20035;-70
2021/07/06 00:29:05;;;;;;;12.10;10.82;;;;;;;;;;5134509;27;20031;-69
2021/07/06 00:31:31;;;;;;;12.02;10.60;;;;;;;;;;5115744;27;20106;-67
2021/07/06 00:33:57;;;;;;;14.98;10.35;;;;;;;;;;5134158;27;20468;-65
2021/07/06 00:36:24;;;;;;;11.23;9.63;;;;;;;;;;5115477;27;20043;-67
2021/07/06 00:38:50;;;;;;;13.35;10.38;;;;;;;;;;5133878;27;20062;-69
2021/07/06 00:41:16;;;;;;;10.93;9.55;;;;;;;;;;5134172;27;20094;-68
2021/07/06 00:43:42;;;;;;;11.52;9.52;;;;;;;;;;5115568;28;20027;-69
2021/07/06 00:46:09;;;;;;;13.65;9.80;;;;;;;;;;5133782;27;20535;-68
2021/07/06 00:48:35;;;;;;;12.13;10.00;;;;;;;;;;5133927;28;20039;-70
2021/07/06 00:51:02;;;;;;;11.35;9.23;;;;;;;;;;5133960;28;20076;-68
2021/07/06 00:53:28;;;;;;;11.45;9.50;;;;;;;;;;5133964;28;20483;-66
2021/07/06 00:55:56;;;;;;;11.10;9.77;;;;;;;;;;5115510;28;20038;-66
2021/07/06 00:58:23;;;;;;;13.50;10.55;;;;;;;;;;5133935;28;20030;-71
2021/07/06 01:00:49;;;;;;;11.20;10.07;;;;;;;;;;5133919;28;20367;-71
2021/07/06 01:03:16;;;;;;;12.38;10.77;;;;;;;;;;5133857;28;20482;-68
2021/07/06 01:05:42;;;;;;;14.90;10.73;;;;;;;;;;5133506;28;20479;-68
2021/07/06 01:08:08;;;;;;;11.80;10.13;;;;;;;;;;5115377;28;20031;-68
2021/07/06 01:10:35;;;;;;;12.15;10.65;;;;;;;;;;5133859;28;20026;-69
2021/07/06 01:13:02;;;;;;;13.13;11.20;;;;;;;;;;5115408;28;20451;-68
2021/07/06 01:15:29;;;;;;;12.32;10.32;;;;;;;;;;5133753;28;20076;-69
2021/07/06 01:17:58;;;;;;;11.75;10.57;;;;;;;;;;5133733;28;20030;-67
2021/07/06 01:20:25;;;;;;;13.25;11.20;;;;;;;;;;5133779;28;20088;-68
2021/07/06 01:22:51;;;;;;;13.40;10.57;;;;;;;;;;5133726;28;20023;-69
2021/07/06 01:25:18;;;;;;;13.50;10.88;;;;;;;;;;5133628;28;20027;-68
2021/07/06 01:27:44;;;;;;;16.40;11.30;;;;;;;;;;5133639;28;20031;-68
2021/07/06 01:30:13;;;;;;;11.73;10.52;;;;;;;;;;5133658;28;20022;-68
2021/07/06 01:32:40;;;;;;;12.77;10.63;;;;;;;;;;5115167;28;20038;-69
2021/07/06 01:35:07;;;;;;;13.32;10.65;;;;;;;;;;5133607;28;20027;-68
2021/07/06 01:37:34;;;;;;;21.67;11.45;;;;;;;;;;5114893;28;20054;-68
2021/07/06 01:40:00;;;;;;;13.93;10.57;;;;;;;;;;5133284;28;20034;-69
2021/07/06 01:42:26;;;;;;;11.65;10.45;;;;;;;;;;5133593;28;20633;-69
2021/07/06 01:45:06;;;;;;;11.63;10.43;;;;;;;;;;5133135;28;20050;-68
2021/07/06 01:47:36;;;;;;;12.38;10.25;;;;;;;;;;5115025;28;20028;-68
2021/07/06 01:50:02;;;;;;;12.68;10.82;;;;;;;;;;5133154;28;20477;-69
2021/07/06 01:52:28;;;;;;;13.98;11.45;;;;;;;;;;5133388;28;20465;-69
2021/07/06 01:54:54;;;;;;;13.07;10.43;;;;;;;;;;5115026;28;20031;-70
2021/07/06 01:57:24;;;;;;;11.02;9.98;;;;;;;;;;5114910;28;20030;-68
2021/07/06 01:59:51;;;;;;;11.32;10.23;;;;;;;;;;5136329;27;20765;-69
2021/07/06 02:02:17;;;;;;;15.13;11.23;;;;;;;;;;5138418;27;20019;-69
2021/07/06 02:04:43;;;;;;;15.07;9.82;;;;;;;;;;5137945;27;20076;-69
2021/07/06 02:07:09;;;;;;;11.23;10.07;;;;;;;;;;5137848;27;20106;-69
2021/07/06 02:09:35;;;;;;;11.82;9.85;;;;;;;;;;5137342;27;20387;-69
2021/07/06 02:12:02;;;;;;;13.27;10.55;;;;;;;;;;5119108;27;20122;-67
2021/07/06 02:14:28;;;;;;;11.35;10.25;;;;;;;;;;5137247;27;20111;-68
2021/07/06 02:16:54;;;;;;;11.18;9.40;;;;;;;;;;5118733;27;20030;-68
2021/07/06 02:19:20;;;;;;;10.93;9.55;;;;;;;;;;5136732;27;20019;-67
2021/07/06 02:21:46;;;;;;;11.27;10.15;;;;;;;;;;5136937;27;20371;-69
2021/07/06 02:24:13;;;;;;;11.75;10.55;;;;;;;;;;5117731;27;20114;-70
2021/07/06 02:26:39;;;;;;;11.18;10.07;;;;;;;;;;5136813;27;20030;-68
2021/07/06 02:29:05;;;;;;;12.32;11.02;;;;;;;;;;5136431;27;20102;-70
2021/07/06 02:31:31;;;;;;;16.23;10.77;;;;;;;;;;5136417;27;20015;-69
2021/07/06 02:33:57;;;;;;;12.00;10.75;;;;;;;;;;5117637;27;20102;-71
2021/07/06 02:36:23;;;;;;;13.10;10.43;;;;;;;;;;5104904;28;20043;-71
2021/07/06 02:38:50;;;;;;;12.48;10.07;;;;;;;;;;5095419;28;20020;-69
2021/07/06 02:41:16;;;;;;;15.23;11.25;;;;;;;;;;5095662;28;20020;-69
2021/07/06 02:43:42;;;;;;;11.73;10.27;;;;;;;;;;5095616;28;20099;-68
2021/07/06 02:46:10;;;;;;;15.85;10.88;;;;;;;;;;5095192;28;20694;-68
2021/07/06 02:48:38;;;;;;;11.85;10.00;;;;;;;;;;5094913;28;20031;-69
2021/07/06 02:51:04;;;;;;;14.93;11.30;;;;;;;;;;5093827;28;20031;-68
2021/07/06 02:53:30;;;;;;;11.80;10.68;;;;;;;;;;5093781;28;20114;-69
2021/07/06 02:55:56;;;;;;;13.13;11.07;;;;;;;;;;5095021;28;20020;-68
2021/07/06 02:58:23;;;;;;;13.25;11.23;;;;;;;;;;5094976;28;20058;-68
2021/07/06 03:00:49;;;;;;;13.20;11.80;;;;;;;;;;5093404;28;20119;-69
2021/07/06 03:03:15;;;;;;;12.52;11.23;;;;;;;;;;5093638;28;20431;-68
2021/07/06 03:05:41;;;;;;;17.38;11.60;;;;;;;;;;5094814;28;20058;-68
2021/07/06 03:08:08;;;;;;;16.13;13.07;;;;;;;;;;5094775;28;20028;-69
2021/07/06 03:10:35;;;;;;;15.02;12.52;;;;;;;;;;5094505;28;20028;-69
2021/07/06 03:13:02;;;;;;;17.70;13.95;;;;;;;;;;5094724;28;20042;-69
2021/07/06 03:15:29;;;;;;;14.32;12.73;;;;;;;;;;5094652;28;20500;-69
2021/07/06 03:17:55;;;;;;;15.25;13.38;;;;;;;;;;5094598;28;20039;-68
2021/07/06 03:20:23;;;;;;;17.42;13.45;;;;;;;;;;5094552;28;20073;-68
2021/07/06 03:22:49;;;;;;;15.38;12.93;;;;;;;;;;5094518;28;20027;-67
2021/07/06 03:25:16;;;;;;;16.55;13.50;;;;;;;;;;5094366;28;20039;-69
2021/07/06 03:27:43;;;;;;;16.35;12.82;;;;;;;;;;5093146;28;20028;-69
2021/07/06 03:30:20;;;;;;;18.13;13.98;;;;;;;;;;5094363;28;20058;-67
2021/07/06 03:32:47;;;;;;;16.73;13.15;;;;;;;;;;5094361;28;20031;-68
2021/07/06 03:35:13;;;;;;;15.15;13.25;;;;;;;;;;5094011;28;20118;-69
2021/07/06 03:37:40;;;;;;;14.80;12.93;;;;;;;;;;5134055;27;20382;-69
2021/07/06 03:40:07;;;;;;;17.58;13.57;;;;;;;;;;5135188;27;20409;-69
2021/07/06 03:42:33;;;;;;;15.73;13.05;;;;;;;;;;5116647;27;20027;-69
2021/07/06 03:45:00;;;;;;;18.33;13.20;;;;;;;;;;5134918;27;20062;-69
2021/07/06 03:47:26;;;;;;;15.75;12.55;;;;;;;;;;5134967;27;20027;-69
2021/07/06 03:49:52;;;;;;;17.80;14.02;;;;;;;;;;5135168;27;20472;-69
2021/07/06 03:52:18;;;;;;;16.23;14.07;;;;;;;;;;5134824;27;20024;-68
2021/07/06 03:54:44;;;;;;;19.75;13.50;;;;;;;;;;5134806;27;20101;-69
2021/07/06 03:57:11;;;;;;;15.82;12.80;;;;;;;;;;5134762;27;20098;-71
2021/07/06 03:59:37;;;;;;;15.45;13.20;;;;;;;;;;5134664;27;20363;-68
2021/07/06 04:02:03;;;;;;;15.52;13.23;;;;;;;;;;5135016;27;20019;-68
2021/07/06 04:04:29;;;;;;;16.10;12.45;;;;;;;;;;5134606;27;20023;-68
2021/07/06 04:06:56;;;;;;;14.68;12.35;;;;;;;;;;5134620;27;20031;-66
2021/07/06 04:09:22;;;;;;;15.35;12.10;;;;;;;;;;5134504;27;20110;-68
2021/07/06 04:11:48;;;;;;;14.20;12.75;;;;;;;;;;5134550;27;20052;-69
2021/07/06 04:14:14;;;;;;;13.10;11.63;;;;;;;;;;5134773;27;20062;-69
2021/07/06 04:16:40;;;;;;;16.45;11.68;;;;;;;;;;5115989;27;20477;-67
2021/07/06 04:19:07;;;;;;;13.65;11.35;;;;;;;;;;5134059;27;20109;-68
2021/07/06 04:21:34;;;;;;;14.00;11.43;;;;;;;;;;5133766;27;20023;-69
2021/07/06 04:24:01;;;;;;;14.30;11.25;;;;;;;;;;5115791;27;20344;-67
2021/07/06 04:26:27;;;;;;;14.38;11.55;;;;;;;;;;5134539;27;20072;-69
2021/07/06 04:28:54;;;;;;;12.60;11.23;;;;;;;;;;5134318;27;20015;-68
2021/07/06 04:31:20;;;;;;;13.50;10.70;;;;;;;;;;5115789;27;20068;-68
2021/07/06 04:33:46;;;;;;;12.27;10.98;;;;;;;;;;5134203;27;20025;-68
2021/07/06 04:36:13;;;;;;;21.23;11.40;;;;;;;;;;5133876;27;20086;-70
2021/07/06 04:38:39;;;;;;;13.93;10.85;;;;;;;;;;5115576;28;20030;-68
2021/07/06 04:41:05;;;;;;;15.15;10.77;;;;;;;;;;5115722;27;20475;-68
2021/07/06 04:43:32;;;;;;;13.05;10.90;;;;;;;;;;5134097;27;20058;-67
2021/07/06 04:45:58;;;;;;;12.07;10.65;;;;;;;;;;5115563;28;20027;-69
2021/07/06 04:48:26;;;;;;;12.73;10.45;;;;;;;;;;5133987;28;20027;-69
2021/07/06 04:50:52;;;;;;;13.02;10.57;;;;;;;;;;5115611;28;20348;-71
2021/07/06 04:53:22;;;;;;;12.75;10.32;;;;;;;;;;5134022;28;20097;-71
2021/07/06 04:55:48;;;;;;;13.40;11.20;;;;;;;;;;5134014;28;20027;-67
2021/07/06 04:58:14;;;;;;;12.88;10.50;;;;;;;;;;5115530;28;20015;-68
2021/07/06 05:00:40;;;;;;;12.07;9.98;;;;;;;;;;5115529;28;20110;-67
2021/07/06 05:03:07;;;;;;;11.13;9.35;;;;;;;;;;5133508;28;20476;-68
2021/07/06 05:05:38;;;;;;;12.70;10.30;;;;;;;;;;5133404;28;20054;-69
2021/07/06 05:08:04;;;;;;;12.50;9.80;;;;;;;;;;5133636;28;20512;-71
2021/07/06 05:10:34;;;;;;;13.57;9.45;;;;;;;;;;5115377;28;20407;-69
2021/07/06 05:13:00;;;;;;;13.90;9.85;;;;;;;;;;5115275;28;20168;-69
2021/07/06 05:15:26;;;;;;;11.93;10.63;;;;;;;;;;5115411;28;20382;-68
2021/07/06 05:17:52;;;;;;;15.80;10.02;;;;;;;;;;5133766;28;20095;-69
2021/07/06 05:20:19;;;;;;;13.13;9.93;;;;;;;;;;5133713;28;20023;-66
2021/07/06 05:22:45;;;;;;;15.82;9.60;;;;;;;;;;5115356;28;20126;-68
2021/07/06 05:25:11;;;;;;;15.60;10.52;;;;;;;;;;5133320;28;20035;-68
2021/07/06 05:27:38;;;;;;;10.88;8.77;;;;;;;;;;5133708;28;20520;-68
2021/07/06 05:30:05;;;;;;;11.65;9.25;;;;;;;;;;5133652;28;20027;-68
2021/07/06 05:32:31;;;;;;;16.25;9.48;;;;;;;;;;5133988;27;20024;-69
2021/07/06 05:34:58;;;;;;;16.33;10.23;;;;;;;;;;5137157;27;20376;-69
2021/07/06 05:37:24;;;;;;;10.80;9.35;;;;;;;;;;5117728;27;20050;-69
2021/07/06 05:39:50;;;;;;;10.70;8.52;;;;;;;;;;5136236;27;20027;-69
2021/07/06 05:42:16;;;;;;;12.85;8.77;;;;;;;;;;5137460;27;20031;-69
2021/07/06 05:44:46;;;;;;;13.60;9.88;;;;;;;;;;5137241;27;20107;-68
2021/07/06 05:47:12;;;;;;;13.50;9.20;;;;;;;;;;5137230;27;20571;-68
2021/07/06 05:49:39;;;;;;;11.35;9.65;;;;;;;;;;5137154;27;20059;-69
2021/07/06 05:52:05;;;;;;;12.73;9.00;;;;;;;;;;5135877;27;20022;-69
2021/07/06 05:54:31;;;;;;;11.50;8.82;;;;;;;;;;5135104;27;20080;-71
2021/07/06 05:56:57;;;;;;;10.70;9.50;;;;;;;;;;5134964;27;20094;-70
2021/07/06 05:59:24;;;;;;;12.55;9.35;;;;;;;;;;5134884;27;20090;-69
2021/07/06 06:01:50;;;;;;;10.60;8.90;;;;;;;;;;5116540;27;20027;-68
2021/07/06 06:04:16;;;;;;;19.27;9.27;;;;;;;;;;5134771;27;20087;-70
2021/07/06 06:06:43;;;;;;;13.48;7.85;;;;;;;;;;5135484;27;20034;-69
2021/07/06 06:09:09;;;;;;;11.07;7.85;;;;;;;;;;5136864;27;20500;-69
2021/07/06 06:11:36;;;;;;;16.90;8.85;;;;;;;;;;5118420;27;20031;-71
2021/07/06 06:14:02;;;;;;;18.80;8.70;;;;;;;;;;5136693;27;20055;-70
2021/07/06 06:16:28;;;;;;;13.23;8.07;;;;;;;;;;5116435;27;20015;-68
2021/07/06 06:18:55;;;;;;;14.70;8.25;;;;;;;;;;5118269;27;20114;-69
2021/07/06 06:21:25;;;;;;;8.70;7.90;;;;;;;;;;5118210;27;20088;-69
2021/07/06 06:23:52;;;;;;;10.02;7.57;;;;;;;;;;5136651;27;20103;-69
2021/07/06 06:26:18;;;;;;;8.48;7.55;;;;;;;;;;5136485;27;20055;-70
2021/07/06 06:28:44;;;;;;;9.75;8.15;;;;;;;;;;5136798;27;20410;-69
2021/07/06 06:31:11;;;;;;;14.48;7.38;;;;;;;;;;5136501;27;20023;-69
2021/07/06 06:33:37;;;;;;;9.68;7.85;;;;;;;;;;5118014;27;20019;-71
2021/07/06 06:36:03;;;;;;;12.20;7.78;;;;;;;;;;5136249;27;20471;-70
2021/07/06 06:38:29;;;;;;;7.85;7.05;;;;;;;;;;5136559;27;20090;-68
2021/07/06 06:40:55;;;;;;;9.30;6.88;;;;;;;;;;5136211;27;20023;-69
2021/07/06 06:43:22;;;;;;;11.63;7.70;;;;;;;;;;5136229;27;20019;-70
2021/07/06 06:45:48;;;;;;;12.23;7.22;;;;;;;;;;5135520;27;20110;-68
2021/07/06 06:48:14;;;;;;;12.85;7.28;;;;;;;;;;5136122;27;20055;-70
2021/07/06 06:50:40;;;;;;;9.95;7.03;;;;;;;;;;5117349;27;20053;-67
2021/07/06 06:53:06;;;;;;;11.27;7.15;;;;;;;;;;5136336;27;20127;-68
2021/07/06 06:55:33;;;;;;;7.88;7.13;;;;;;;;;;5135725;27;20106;-67
2021/07/06 06:57:59;;;;;;;12.98;8.05;;;;;;;;;;5135880;27;20019;-68
2021/07/06 07:00:25;;;;;;;8.60;6.68;;;;;;;;;;5135857;27;20027;-68
2021/07/06 07:02:54;;;;;;;13.77;6.60;;;;;;;;;;5135794;27;20455;-68
2021/07/06 07:05:20;;;;;;;8.00;6.28;;;;;;;;;;5135548;27;20023;-69
2021/07/06 07:07:46;;;;;;;8.98;6.75;;;;;;;;;;5117278;27;20019;-67
2021/07/06 07:10:13;;;;;;;9.32;6.60;;;;;;;;;;5135379;27;20027;-67
2021/07/06 07:12:40;;;;;;;11.07;6.68;;;;;;;;;;5135944;27;20401;-68
2021/07/06 07:15:11;;;;;;;10.38;6.63;;;;;;;;;;5117121;27;20027;-68
2021/07/06 07:17:37;;;;;;;6.47;5.90;;;;;;;;;;5133726;27;20018;-69
2021/07/06 07:20:05;;;;;;;9.32;6.70;;;;;;;;;;5125338;27;20357;-66
2021/07/06 07:22:31;;;;;;;10.15;6.93;;;;;;;;;;5114900;28;20016;-69
2021/07/06 07:24:57;;;;;;;9.15;6.47;;;;;;;;;;5114733;28;20024;-69
2021/07/06 07:27:24;;;;;;;8.90;6.93;;;;;;;;;;5114468;28;20030;-67
2021/07/06 07:29:50;;;;;;;10.52;6.28;;;;;;;;;;5114666;28;20472;-70
2021/07/06 07:32:16;;;;;;;9.15;6.68;;;;;;;;;;5114484;28;20410;-69
2021/07/06 07:34:43;;;;;;;11.10;6.68;;;;;;;;;;5114215;28;20430;-70
2021/07/06 07:37:10;;;;;;;15.65;6.25;;;;;;;;;;5114163;28;20404;-68
2021/07/06 07:39:37;;;;;;;7.88;6.70;;;;;;;;;;5096206;28;20036;-66
2021/07/06 07:42:04;;;;;;;8.48;7.15;;;;;;;;;;5114520;28;20031;-68
2021/07/06 07:44:31;;;;;;;11.70;7.45;;;;;;;;;;5114406;28;20131;-67
2021/07/06 07:46:57;;;;;;;11.77;6.63;;;;;;;;;;5114358;28;20019;-68
2021/07/06 07:49:23;;;;;;;6.65;5.97;;;;;;;;;;5114032;28;20501;-67
2021/07/06 07:51:49;;;;;;;7.28;5.88;;;;;;;;;;5113980;28;20066;-67
2021/07/06 07:54:16;;;;;;;7.95;5.95;;;;;;;;;;5114202;28;20051;-68
2021/07/06 07:56:42;;;;;;;7.57;5.43;;;;;;;;;;5113147;28;20472;-66
2021/07/06 07:59:09;;;;;;;6.32;5.72;;;;;;;;;;5114130;28;20432;-67
2021/07/06 08:01:36;;;;;;;9.35;6.40;;;;;;;;;;5113043;28;20547;-66
2021/07/06 08:04:02;;;;;;;7.05;6.35;;;;;;;;;;5113898;28;20053;-69
2021/07/06 08:06:28;;;;;;;8.40;6.03;;;;;;;;;;5114218;28;20375;-67
2021/07/06 08:08:54;;;;;;;9.25;6.50;;;;;;;;;;5113979;28;20135;-67
2021/07/06 08:11:21;;;;;;;9.98;6.97;;;;;;;;;;5114192;28;20452;-68
2021/07/06 08:13:47;;;;;;;9.32;6.70;;;;;;;;;;5114035;28;20019;-69
2021/07/06 08:16:13;;;;;;;8.32;5.68;;;;;;;;;;5113893;28;20107;-70
2021/07/06 08:18:40;;;;;;;7.20;5.93;;;;;;;;;;5127290;27;20067;-70
2021/07/06 08:21:06;;;;;;;8.05;6.88;;;;;;;;;;5115732;27;20025;-69
2021/07/06 08:23:32;;;;;;;14.15;7.20;;;;;;;;;;5134295;27;20029;-68
2021/07/06 08:25:59;;;;;;;9.45;6.93;;;;;;;;;;5115802;27;20095;-69
2021/07/06 08:28:26;;;;;;;10.85;7.70;;;;;;;;;;5115660;27;20050;-67
2021/07/06 08:30:53;;;;;;;9.07;7.35;;;;;;;;;;5115784;27;20027;-71
2021/07/06 08:33:19;;;;;;;14.13;6.60;;;;;;;;;;5134172;27;20379;-69
2021/07/06 08:35:46;;;;;;;10.80;7.15;;;;;;;;;;5133735;27;20047;-69
2021/07/06 08:38:15;;;;;;;6.95;6.25;;;;;;;;;;5134053;27;20066;-68
2021/07/06 08:40:42;;;;;;;7.60;6.60;;;;;;;;;;5133719;27;20026;-67
2021/07/06 08:43:09;;;;;;;10.07;6.85;;;;;;;;;;5115146;28;20019;-67
2021/07/06 08:45:36;;;;;;;10.55;5.88;;;;;;;;;;5115558;28;20429;-66
2021/07/06 08:48:02;;;;;;;7.05;6.10;;;;;;;;;;5133872;27;20019;-66
2021/07/06 08:50:34;;;;;;;7.70;6.03;;;;;;;;;;5115612;28;20102;-66
2021/07/06 08:53:01;;;;;;;10.55;6.25;;;;;;;;;;5115441;28;20019;-69
2021/07/06 08:55:27;;;;;;;12.43;6.57;;;;;;;;;;5133642;28;20094;-69
2021/07/06 08:57:54;;;;;;;11.45;6.95;;;;;;;;;;5133910;28;20015;-67
2021/07/06 09:00:21;;;;;;;7.28;6.40;;;;;;;;;;5115237;28;20457;-67
2021/07/06 09:03:02;;;;;;;11.23;6.05;;;;;;;;;;5133867;28;20069;-68
2021/07/06 09:05:29;;;;;;;11.07;6.63;;;;;;;;;;5133800;28;20041;-71
2021/07/06 09:07:55;;;;;;;9.43;6.18;;;;;;;;;;5134952;27;20379;-68
2021/07/06 09:10:23;;;;;;;9.48;5.93;;;;;;;;;;5138034;27;20400;-68
2021/07/06 09:12:49;;;;;;;7.47;6.35;;;;;;;;;;5119521;27;20016;-67
2021/07/06 09:15:23;;;;;;;10.50;6.32;;;;;;;;;;5137983;27;20027;-69
2021/07/06 09:18:05;;;;;;;8.70;6.40;;;;;;;;;;5137793;27;20015;-67
2021/07/06 09:20:31;;;;;;;12.70;6.00;;;;;;;;;;5137890;27;20076;-68
2021/07/06 09:23:17;;;;;;;8.30;6.25;;;;;;;;;;5137823;27;20019;-69
2021/07/06 09:25:44;;;;;;;10.32;6.57;;;;;;;;;;5137457;27;20030;-69
2021/07/06 09:28:22;;;;;;;12.48;5.93;;;;;;;;;;5137642;27;20115;-69
2021/07/06 09:30:49;;;;;;;7.75;6.10;;;;;;;;;;5137610;27;20044;-67
2021/07/06 09:33:33;;;;;;;7.80;5.85;;;;;;;;;;5137638;27;20031;-68
2021/07/06 09:35:59;;;;;;;7.18;6.22;;;;;;;;;;5118819;27;20051;-68
2021/07/06 09:38:25;;;;;;;8.23;6.10;;;;;;;;;;5119207;27;20429;-67
2021/07/06 09:40:52;;;;;;;7.70;5.68;;;;;;;;;;5119006;27;20015;-66
2021/07/06 09:43:22;;;;;;;12.10;5.70;;;;;;;;;;5137733;27;20039;-67
2021/07/06 09:45:58;;;;;;;9.68;5.90;;;;;;;;;;5137302;27;20032;-69
2021/07/06 09:48:25;;;;;;;8.60;5.85;;;;;;;;;;5118719;27;20035;-69
2021/07/06 09:50:51;;;;;;;6.47;5.40;;;;;;;;;;5136913;27;20020;-68
2021/07/06 09:53:44;;;;;;;7.85;5.13;;;;;;;;;;5118392;27;20028;-68
2021/07/06 09:56:11;;;;;;;8.88;5.55;;;;;;;;;;5132244;27;20559;-69
2021/07/06 09:58:59;;;;;;;5.65;4.75;;;;;;;;;;5118529;27;20490;-67
2021/07/06 10:01:26;;;;;;;4.80;4.20;;;;;;;;;;5136875;27;20040;-70
2021/07/06 10:03:53;;;;;;;7.70;4.75;;;;;;;;;;5137029;27;20061;-68
2021/07/06 10:06:21;;;;;;;8.80;5.00;;;;;;;;;;5136603;27;20023;-66
2021/07/06 10:08:48;;;;;;;12.18;5.47;;;;;;;;;;5118407;27;20027;-69
2021/07/06 10:11:15;;;;;;;10.73;4.97;;;;;;;;;;5118313;27;20024;-67
2021/07/06 10:13:41;;;;;;;8.10;5.47;;;;;;;;;;5118347;27;20027;-67
2021/07/06 10:16:07;;;;;;;6.10;5.40;;;;;;;;;;5135498;27;20105;-71
2021/07/06 10:18:34;;;;;;;8.98;4.82;;;;;;;;;;5136134;27;20058;-69
2021/07/06 10:21:01;;;;;;;8.07;4.57;;;;;;;;;;5135637;27;20073;-68
2021/07/06 10:23:27;;;;;;;8.52;4.22;;;;;;;;;;5118104;27;20054;-69
2021/07/06 10:25:56;;;;;;;5.38;4.72;;;;;;;;;;5136433;27;20027;-66
2021/07/06 10:28:23;;;;;;;5.07;4.25;;;;;;;;;;5136471;27;20115;-66
2021/07/06 10:30:50;;;;;;;5.22;4.70;;;;;;;;;;5117947;27;20059;-67
2021/07/06 10:33:17;;;;;;;6.93;4.68;;;;;;;;;;5136403;27;20034;-68
2021/07/06 10:35:46;;;;;;;5.25;4.75;;;;;;;;;;5136131;27;20568;-67
2021/07/06 10:38:39;;;;;;;5.07;4.68;;;;;;;;;;5117936;27;20054;-65
2021/07/06 10:41:13;;;;;;;4.70;4.30;;;;;;;;;;5117881;27;20015;-65
2021/07/06 10:43:42;;;;;;;5.60;4.32;;;;;;;;;;5136221;27;20016;-68
2021/07/06 10:46:21;;;;;;;6.10;4.90;;;;;;;;;;5136034;27;20050;-67
2021/07/06 10:48:48;;;;;;;4.47;4.07;;;;;;;;;;5117700;27;20015;-68
2021/07/06 10:51:33;;;;;;;7.13;4.13;;;;;;;;;;5117463;27;20501;-70
2021/07/06 10:54:38;;;;;;;9.40;5.05;;;;;;;;;;5117585;27;20121;-66
2021/07/06 10:57:07;;;;;;;8.13;5.10;;;;;;;;;;5032398;28;20037;-68
2021/07/06 10:59:34;;;;;;;12.70;5.20;;;;;;;;;;5032340;28;20029;-68
2021/07/06 11:02:04;;;;;;;8.88;4.88;;;;;;;;;;5032287;28;20068;-69
2021/07/06 11:04:50;;;;;;;6.07;4.15;;;;;;;;;;5032127;28;20040;-68
2021/07/06 11:07:17;;;;;;;5.47;4.32;;;;;;;;;;5032239;28;20030;-68
2021/07/06 11:09:49;;;;;;;8.05;4.43;;;;;;;;;;5032143;28;20124;-68
2021/07/06 11:12:23;;;;;;;9.52;4.28;;;;;;;;;;5032190;28;20128;-70
2021/07/06 11:14:49;;;;;;;6.57;4.70;;;;;;;;;;5015462;28;20037;-68
2021/07/06 11:17:31;;;;;;;4.43;4.03;;;;;;;;;;5030979;28;20026;-66
2021/07/06 11:19:58;;;;;;;4.60;4.20;;;;;;;;;;5032107;28;20033;-70
2021/07/06 11:22:39;;;;;;;11.13;4.53;;;;;;;;;;5031060;28;20045;-67
2021/07/06 11:25:19;;;;;;;5.85;4.70;;;;;;;;;;5031829;28;20033;-66
2021/07/06 11:27:55;;;;;;;5.00;4.22;;;;;;;;;;5081059;27;20035;-67
2021/07/06 11:30:25;;;;;;;12.43;5.07;;;;;;;;;;5133802;27;20019;-65
2021/07/06 11:33:05;;;;;;;8.82;4.38;;;;;;;;;;5134930;27;20057;-65
2021/07/06 11:35:33;;;;;;;6.30;4.50;;;;;;;;;;5133090;27;20054;-66
2021/07/06 11:38:01;;;;;;;6.22;4.65;;;;;;;;;;5094193;28;20284;-67
2021/07/06 11:40:27;;;;;;;5.20;4.28;;;;;;;;;;5094020;28;20039;-67
2021/07/06 11:42:54;;;;;;;5.68;4.65;;;;;;;;;;5093686;28;20028;-67
2021/07/06 11:45:21;;;;;;;5.32;4.43;;;;;;;;;;5093815;28;20023;-65
2021/07/06 11:47:49;;;;;;;6.20;4.05;;;;;;;;;;5093239;28;20044;-68
2021/07/06 11:50:25;;;;;;;5.38;4.35;;;;;;;;;;5093961;28;20024;-66
2021/07/06 11:52:51;;;;;;;7.72;4.63;;;;;;;;;;5092459;28;20104;-69
2021/07/06 11:55:24;;;;;;;7.40;4.28;;;;;;;;;;5093875;28;20031;-69
2021/07/06 11:57:55;;;;;;;8.23;4.60;;;;;;;;;;5093865;28;20024;-68
2021/07/06 12:00:22;;;;;;;6.65;4.65;;;;;;;;;;5093528;28;20024;-68
2021/07/06 12:02:48;;;;;;;6.30;4.40;;;;;;;;;;5093683;28;20456;-70
2021/07/06 12:05:18;;;;;;;6.07;4.93;;;;;;;;;;5093899;28;20039;-70
2021/07/06 12:07:45;;;;;;;8.82;4.65;;;;;;;;;;5093712;28;20028;-67
2021/07/06 12:10:11;;;;;;;7.28;4.85;;;;;;;;;;5092355;28;20103;-72
2021/07/06 12:12:38;;;;;;;7.03;5.07;;;;;;;;;;5093566;28;20028;-71
2021/07/06 12:15:05;;;;;;;6.38;4.40;;;;;;;;;;5093524;28;20020;-68
2021/07/06 12:17:32;;;;;;;6.13;4.03;;;;;;;;;;5093574;28;20020;-69
2021/07/06 12:19:59;;;;;;;7.20;4.45;;;;;;;;;;5093598;28;20020;-69
2021/07/06 12:22:26;;;;;;;4.97;4.57;;;;;;;;;;5093441;28;20024;-69
2021/07/06 12:24:54;;;;;;;5.65;4.82;;;;;;;;;;5093372;28;20107;-69
2021/07/06 12:27:21;;;;;;;8.93;5.13;;;;;;;;;;5093461;28;20093;-68
2021/07/06 12:29:54;;;;;;;6.15;4.68;;;;;;;;;;5092014;28;20028;-68
2021/07/06 12:32:20;;;;;;;10.38;4.97;;;;;;;;;;5092871;28;20399;-69
2021/07/06 12:34:56;;;;;;;6.80;4.47;;;;;;;;;;5093414;28;20028;-69
2021/07/06 12:37:22;;;;;;;6.28;4.82;;;;;;;;;;5123958;27;20058;-68
2021/07/06 12:39:55;;;;;;;5.25;4.53;;;;;;;;;;5115381;28;20027;-70
2021/07/06 12:42:22;;;;;;;5.00;4.38;;;;;;;;;;5133550;27;20016;-68
2021/07/06 12:44:55;;;;;;;7.18;4.63;;;;;;;;;;5133979;27;20146;-70
2021/07/06 12:47:26;;;;;;;7.32;4.68;;;;;;;;;;5115582;28;20031;-68
2021/07/06 12:49:56;;;;;;;6.40;4.93;;;;;;;;;;5134041;28;20023;-69
2021/07/06 12:52:24;;;;;;;8.48;5.18;;;;;;;;;;5133954;28;20019;-72
2021/07/06 12:54:50;;;;;;;6.20;4.20;;;;;;;;;;5133947;28;20368;-70
2021/07/06 12:57:27;;;;;;;5.97;4.90;;;;;;;;;;5115483;28;20019;-70
2021/07/06 13:00:12;;;;;;;5.05;4.65;;;;;;;;;;5115578;28;20046;-70
2021/07/06 13:02:39;;;;;;;6.97;4.50;;;;;;;;;;5133541;28;20383;-70
2021/07/06 13:05:18;;;;;;;4.82;4.43;;;45.50;46.50;;;;;;5133845;28;20025;-70
2021/07/06 13:07:45;;;;;;;5.60;4.47;;;45.50;47.00;;;;;;5115454;28;20042;-70
2021/07/06 13:10:14;;;;;;;6.68;4.90;;;45.10;46.00;;;;;;5133748;28;20023;-70
2021/07/06 13:12:42;;;;;;;5.90;4.53;;;;;;;;;;5133700;28;20114;-68
2021/07/06 13:15:12;;;;;;;5.40;4.38;;;;;;;;;;5133798;28;20021;-68
2021/07/06 13:17:46;;;;;;;4.70;4.25;;;46.30;44.30;;;;;;5115392;28;20118;-70
2021/07/06 13:20:18;;;;;;;7.18;4.20;;;46.50;45.20;;;;;;5133733;28;20131;-69
2021/07/06 13:22:45;;;;;;;5.75;4.35;;;46.80;44.90;;;;;;5133644;28;20032;-69
2021/07/06 13:25:12;;;;;;;6.05;4.03;;;47.20;44.10;;;;;;5133562;28;20083;-68
2021/07/06 13:27:39;;;;;;;5.68;4.60;;;47.00;44.20;;;;;;5133679;28;20059;-68
2021/07/06 13:30:08;;;;;;;6.43;4.57;;;46.90;43.30;;;;;;5132968;28;20112;-69
2021/07/06 13:32:42;;;;;;;4.93;4.43;;;47.30;44.30;;;;;;5133300;28;20071;-70
2021/07/06 13:35:10;;;;;;;5.00;4.07;;;47.40;42.90;;;;;;5128388;28;20076;-70
2021/07/06 13:37:37;;;;;;;4.88;4.45;;;47.20;43.10;;;;;;5133210;28;20143;-69
2021/07/06 13:40:06;;;;;;;6.10;4.45;;;47.40;43.20;;;;;;5127533;28;20050;-70
2021/07/06 13:42:31;;;;;;;5.15;4.05;;;47.20;42.50;;;;;;5115085;28;20055;-71
2021/07/06 13:44:57;;;;;;;4.93;4.43;;;47.70;42.70;;;;;;5133324;28;20115;-69
2021/07/06 13:47:23;;;;;;;6.45;4.47;;;47.50;42.70;;;;;;5133208;28;20378;-71
2021/07/06 13:49:49;;;;;;;5.45;4.15;;;46.80;41.10;;;;;;5134577;28;20480;-69
2021/07/06 13:52:15;;;;;;;4.93;4.32;;;47.50;42.60;;;;;;5135222;28;20121;-69
2021/07/06 13:54:41;;;;;;;4.30;3.95;;;;;;;;;;5137649;27;20038;-70
2021/07/06 13:57:09;;;;;;;5.13;4.63;;;47.60;39.90;;;;;;5139768;27;20030;-70
2021/07/06 13:59:35;;;;;;;5.20;4.43;;;47.80;40.60;;;;;;5139245;27;20297;-71
2021/07/06 14:02:02;;;;;;;6.88;4.68;;;47.00;40.50;;;;;;5119815;27;20117;-70
2021/07/06 14:04:28;;;;;;;9.38;4.18;;;;;;;;;;5137364;27;20026;-70
2021/07/06 14:06:56;;;;;;;4.50;4.07;;;48.30;79.30;;;;;;5136910;27;20066;-69
2021/07/06 14:09:22;;;;;;;5.25;4.18;;;;;;;;;;5136867;27;20111;-69
2021/07/06 14:11:48;;;;;;;4.47;4.13;;;;;;;;;;5118201;27;20053;-69
2021/07/06 14:14:14;;;;;;;5.13;4.07;;;49.40;38.70;;;;;;5136806;27;20030;-69
2021/07/06 14:16:40;;;;;;;4.43;4.03;;;49.20;39.70;;;;;;5118370;27;20027;-67
2021/07/06 14:19:06;;;;;;;4.60;4.18;;;49.60;46.10;;;;;;5136687;27;20019;-66
2021/07/06 14:21:34;;;;;;;5.18;4.13;;;49.50;39.50;;;;;;5136512;27;20043;-71
2021/07/06 14:24:00;;;;;;;6.80;4.55;;;49.70;39.90;;;;;;5118044;27;20062;-70
2021/07/06 14:26:26;;;;;;;7.78;4.10;;;49.90;39.10;;;;;;5136525;27;20027;-70